createdAt,value
2024-05-09T00:01:04.117Z,19.40
2024-05-09T00:03:33.942Z,20.83
2024-05-09T00:06:04.152Z,19.52
2024-05-09T00:08:34.531Z,19.55
2024-05-09T00:11:04.600Z,21.10
2024-05-09T00:13:37.014Z,22.02
2024-05-09T00:16:10.205Z,19.13
2024-05-09T00:18:40.290Z,21.48
2024-05-09T00:21:11.119Z,22.63
2024-05-09T00:23:41.347Z,21.08
2024-05-09T00:26:11.070Z,21.38
2024-05-09T00:28:43.601Z,20.75
2024-05-09T00:31:13.647Z,20.08
2024-05-09T00:33:43.480Z,22.25
2024-05-09T00:36:13.239Z,23.77
2024-05-09T00:38:43.376Z,23.65
2024-05-09T00:41:15.160Z,21.77
2024-05-09T00:43:49.002Z,29.77
2024-05-09T00:46:19.584Z,21.05
2024-05-09T00:48:49.699Z,20.38
2024-05-09T00:51:19.914Z,21.90
2024-05-09T00:53:50.901Z,25.42
2024-05-09T00:56:24.302Z,20.77
2024-05-09T00:58:57.846Z,21.90
2024-05-09T01:01:29.026Z,23.95
2024-05-09T01:03:59.517Z,22.38
2024-05-09T01:06:29.650Z,22.45
2024-05-09T01:08:59.368Z,24.80
2024-05-09T01:11:36.706Z,24.25
2024-05-09T01:14:09.162Z,23.83
2024-05-09T01:16:39.320Z,22.25
2024-05-09T01:19:23.268Z,23.70
2024-05-09T01:21:53.415Z,21.50
2024-05-09T01:24:25.674Z,21.98
2024-05-09T01:26:55.989Z,25.63
2024-05-09T01:29:26.011Z,21.85
2024-05-09T01:31:59.301Z,26.80
2024-05-09T01:34:31.359Z,26.52
2024-05-09T01:37:01.212Z,24.55
2024-05-09T01:39:33.410Z,25.30
2024-05-09T01:42:03.669Z,24.40
2024-05-09T01:44:33.904Z,22.42
2024-05-09T01:47:05.653Z,23.27
2024-05-09T01:49:40.982Z,24.63
2024-05-09T01:52:11.228Z,24.20
2024-05-09T01:54:43.480Z,26.48
2024-05-09T01:57:13.605Z,24.95
2024-05-09T01:59:43.430Z,26.88
2024-05-09T02:02:13.623Z,24.48
2024-05-09T02:04:43.994Z,24.40
2024-05-09T02:07:14.056Z,28.65
2024-05-09T02:09:46.633Z,24.67
2024-05-09T02:12:16.716Z,24.25
2024-05-09T02:14:46.429Z,26.90
2024-05-09T02:17:16.425Z,24.83
2024-05-09T02:19:46.094Z,25.98
2024-05-09T02:22:15.963Z,24.35
2024-05-09T02:24:48.112Z,25.15
2024-05-09T02:27:18.245Z,24.83
2024-05-09T02:29:48.353Z,23.80
2024-05-09T02:32:18.309Z,28.33
2024-05-09T02:34:48.608Z,25.15
2024-05-09T02:37:16.124Z,26.10
2024-05-09T02:39:48.470Z,28.83
2024-05-09T02:42:15.960Z,26.30
2024-05-09T02:44:45.885Z,30.13
2024-05-09T02:47:13.006Z,25.75
2024-05-09T02:49:43.412Z,25.42
2024-05-09T02:52:10.649Z,22.85
2024-05-09T02:54:40.276Z,28.17
2024-05-09T02:57:10.006Z,27.17
2024-05-09T02:59:40.166Z,27.20
2024-05-09T03:02:07.296Z,28.05
2024-05-09T03:04:37.195Z,27.58
2024-05-09T03:07:04.805Z,26.02
2024-05-09T03:09:34.733Z,30.05
2024-05-09T03:12:01.811Z,27.92
2024-05-09T03:14:34.318Z,28.15
2024-05-09T03:17:01.520Z,28.35
2024-05-09T03:19:31.647Z,26.15
2024-05-09T03:21:59.316Z,29.15
2024-05-09T03:24:29.528Z,25.15
2024-05-09T03:26:56.619Z,31.15
2024-05-09T03:31:56.399Z,27.00
2024-05-09T03:34:27.575Z,29.35
2024-05-09T03:36:57.193Z,30.02
2024-05-09T03:39:28.492Z,27.50
2024-05-09T03:41:58.168Z,27.52
2024-05-09T03:44:27.887Z,28.30
2024-05-09T03:47:00.319Z,27.75
2024-05-09T03:49:27.700Z,24.02
2024-05-09T03:51:57.331Z,28.08
2024-05-09T03:54:24.988Z,26.05
2024-05-09T03:56:55.152Z,27.13
2024-05-09T03:59:22.115Z,29.45
2024-05-09T04:01:52.607Z,28.90
2024-05-09T04:04:22.414Z,27.73
2024-05-09T04:06:52.250Z,31.75
2024-05-09T04:09:19.246Z,26.75
2024-05-09T04:11:49.424Z,29.15
2024-05-09T04:14:16.664Z,29.40
2024-05-09T04:16:46.578Z,27.15
2024-05-09T04:19:14.190Z,28.20
2024-05-09T04:21:46.968Z,28.90
2024-05-09T04:24:14.351Z,30.08
2024-05-09T04:29:12.023Z,27.88
2024-05-09T04:31:41.922Z,29.17
2024-05-09T04:34:09.067Z,27.75
2024-05-09T04:39:12.379Z,29.58
2024-05-09T04:41:42.043Z,27.60
2024-05-09T04:44:09.202Z,30.48
2024-05-09T04:46:39.752Z,26.23
2024-05-09T04:49:06.892Z,28.55
2024-05-09T04:51:37.914Z,31.95
2024-05-09T04:54:05.599Z,29.35
2024-05-09T04:56:39.638Z,27.17
2024-05-09T04:59:06.890Z,27.13
2024-05-09T05:01:37.208Z,29.20
2024-05-09T05:04:04.813Z,26.83
2024-05-09T05:06:35.096Z,30.48
2024-05-09T05:09:02.296Z,31.88
2024-05-09T05:11:32.241Z,29.40
2024-05-09T05:14:02.102Z,26.70
2024-05-09T05:16:32.316Z,30.30
2024-05-09T05:18:59.525Z,30.92
2024-05-09T05:21:29.797Z,31.25
2024-05-09T05:23:56.874Z,30.33
2024-05-09T05:26:27.857Z,31.60
2024-05-09T05:28:55.331Z,32.80
2024-05-09T05:31:27.807Z,32.28
2024-05-09T05:33:54.863Z,31.38
2024-05-09T05:36:24.820Z,34.83
2024-05-09T05:38:52.160Z,34.88
2024-05-09T05:41:22.662Z,36.95
2024-05-09T05:43:49.682Z,34.58
2024-05-09T05:46:19.728Z,37.03
2024-05-09T05:48:49.517Z,36.00
2024-05-09T05:51:19.605Z,35.15
2024-05-09T05:53:46.767Z,34.10
2024-05-09T05:56:16.623Z,32.33
2024-05-09T05:58:44.055Z,33.05
2024-05-09T06:01:14.778Z,33.30
2024-05-09T06:03:43.472Z,31.60
2024-05-09T06:06:16.718Z,34.97
2024-05-09T06:08:43.896Z,32.45
2024-05-09T06:13:42.904Z,33.30
2024-05-09T06:16:12.711Z,35.17
2024-05-09T06:18:39.940Z,34.50
2024-05-09T06:21:10.426Z,33.78
2024-05-09T06:23:45.899Z,36.72
2024-05-09T06:26:15.572Z,37.42
2024-05-09T06:28:42.485Z,37.85
2024-05-09T06:31:12.479Z,35.67
2024-05-09T06:33:41.239Z,36.15
2024-05-09T06:36:11.529Z,39.50
2024-05-09T06:38:41.203Z,35.90
2024-05-09T06:41:11.327Z,40.13
2024-05-09T06:43:38.337Z,38.13
2024-05-09T06:46:08.298Z,35.40
2024-05-09T06:48:36.049Z,37.88
2024-05-09T06:51:06.178Z,38.13
2024-05-09T06:53:33.532Z,37.20
2024-05-09T06:56:06.282Z,37.17
2024-05-09T06:58:33.386Z,44.72
2024-05-09T07:01:04.043Z,37.80
2024-05-09T07:03:31.840Z,36.30
2024-05-09T07:06:02.245Z,38.75
2024-05-09T07:08:29.444Z,39.35
2024-05-09T07:10:59.120Z,35.65
2024-05-09T07:13:28.870Z,42.53
2024-05-09T07:15:58.723Z,41.13
2024-05-09T07:18:26.000Z,38.67
2024-05-09T07:20:55.715Z,38.15
2024-05-09T07:23:22.890Z,31.88
2024-05-09T07:28:21.696Z,36.78
2024-05-09T07:30:53.928Z,35.03
2024-05-09T07:33:24.720Z,33.88
2024-05-09T07:35:54.994Z,35.97
2024-05-09T07:38:22.640Z,40.42
2024-05-09T07:40:52.494Z,39.30
2024-05-09T07:43:20.503Z,40.72
2024-05-09T07:45:58.215Z,35.97
2024-05-09T07:50:01.399Z,39.65
2024-05-09T07:53:52.571Z,38.45
2024-05-09T07:56:26.111Z,36.35
2024-05-09T07:58:54.088Z,38.38
2024-05-09T08:01:26.244Z,41.65
2024-05-09T08:03:56.724Z,40.83
2024-05-09T08:06:29.162Z,40.15
2024-05-09T08:08:57.898Z,37.22
2024-05-09T08:11:28.684Z,38.30
2024-05-09T08:13:55.963Z,40.30
2024-05-09T08:16:25.922Z,35.30
2024-05-09T08:18:58.900Z,36.60
2024-05-09T08:21:27.641Z,37.90
2024-05-09T08:23:57.798Z,34.38
2024-05-09T08:26:26.329Z,31.52
2024-05-09T08:28:55.853Z,33.08
2024-05-09T08:31:23.105Z,34.72
2024-05-09T08:33:53.017Z,33.40
2024-05-09T08:36:23.366Z,32.60
2024-05-09T08:38:56.376Z,32.40
2024-05-09T08:41:23.470Z,28.30
2024-05-09T08:46:21.368Z,31.67
2024-05-09T08:48:52.687Z,30.48
2024-05-09T08:51:22.561Z,31.70
2024-05-09T08:53:52.474Z,32.53
2024-05-09T08:56:21.695Z,31.25
2024-05-09T08:58:52.352Z,29.50
2024-05-09T09:01:20.321Z,24.42
2024-05-09T09:03:51.780Z,25.05
2024-05-09T09:06:25.437Z,29.02
2024-05-09T09:08:55.566Z,28.83
2024-05-09T09:11:22.639Z,26.90
2024-05-09T09:13:52.674Z,29.83
2024-05-09T09:16:20.979Z,25.13
2024-05-09T09:18:51.292Z,25.00
2024-05-09T09:21:21.441Z,24.63
2024-05-09T09:23:51.083Z,22.90
2024-05-09T09:26:21.969Z,25.75
2024-05-09T09:28:49.786Z,24.63
2024-05-09T09:31:21.750Z,24.25
2024-05-09T09:33:49.962Z,26.55
2024-05-09T09:36:20.668Z,24.55
2024-05-09T09:38:52.172Z,25.83
2024-05-09T09:41:28.628Z,30.20
2024-05-09T09:43:58.256Z,24.25
2024-05-09T09:46:30.503Z,27.83
2024-05-09T09:48:57.848Z,21.05
2024-05-09T09:51:28.883Z,22.63
2024-05-09T09:54:00.703Z,17.38
2024-05-09T09:56:32.528Z,20.20
2024-05-09T09:59:02.837Z,18.58
2024-05-09T10:01:34.705Z,17.48
2024-05-09T10:04:05.009Z,16.77
2024-05-09T10:06:36.497Z,12.07
2024-05-09T10:09:06.464Z,11.35
2024-05-09T10:11:45.032Z,16.48
2024-05-09T10:14:20.821Z,13.95
2024-05-09T10:16:50.877Z,11.52
2024-05-09T10:19:28.542Z,6.45
2024-05-09T10:22:06.276Z,13.20
2024-05-09T10:24:50.247Z,9.77
2024-05-09T10:27:29.654Z,7.47
2024-05-09T10:29:58.007Z,9.20
2024-05-09T10:32:29.833Z,6.88
2024-05-09T10:35:00.956Z,5.38
2024-05-09T10:37:31.819Z,8.07
2024-05-09T10:40:02.692Z,6.25
2024-05-09T10:42:34.754Z,8.20
2024-05-09T10:45:02.507Z,10.65
2024-05-09T10:47:32.864Z,11.85
2024-05-09T10:50:00.224Z,11.07
2024-05-09T10:52:30.221Z,9.90
2024-05-09T10:54:57.171Z,10.25
2024-05-09T10:57:29.897Z,11.25
2024-05-09T11:00:00.250Z,11.80
2024-05-09T11:02:30.475Z,10.45
2024-05-09T11:04:57.723Z,12.82
2024-05-09T11:07:29.526Z,9.77
2024-05-09T11:09:57.298Z,13.15
2024-05-09T11:12:30.384Z,10.48
2024-05-09T11:17:28.387Z,9.73
2024-05-09T11:19:55.626Z,7.20
2024-05-09T11:22:25.916Z,9.30
2024-05-09T11:24:54.814Z,7.78
2024-05-09T11:27:26.598Z,7.72
2024-05-09T11:29:58.033Z,9.75
2024-05-09T11:32:33.012Z,8.77
2024-05-09T11:35:00.698Z,12.02
2024-05-09T11:37:31.845Z,11.07
2024-05-09T11:40:00.139Z,11.60
2024-05-09T11:42:30.199Z,11.38
2024-05-09T11:45:00.629Z,11.18
2024-05-09T11:47:32.585Z,9.20
2024-05-09T11:49:59.914Z,11.93
2024-05-09T11:52:30.142Z,12.57
2024-05-09T11:54:57.433Z,12.00
2024-05-09T11:57:28.827Z,14.55
2024-05-09T11:59:57.395Z,13.80
2024-05-09T12:02:29.798Z,13.93
2024-05-09T12:04:57.661Z,13.93
2024-05-09T12:07:27.706Z,12.23
2024-05-09T12:09:55.143Z,15.35
2024-05-09T12:12:24.738Z,14.40
2024-05-09T12:14:52.046Z,13.77
2024-05-09T12:17:21.844Z,12.43
2024-05-09T12:19:52.859Z,11.70
2024-05-09T12:22:22.600Z,10.45
2024-05-09T12:24:50.382Z,13.00
2024-05-09T12:27:20.106Z,10.30
2024-05-09T12:29:47.956Z,10.95
2024-05-09T12:32:17.951Z,10.07
2024-05-09T12:34:45.271Z,10.52
2024-05-09T12:37:21.678Z,11.38
2024-05-09T12:39:48.821Z,9.20
2024-05-09T12:42:26.749Z,10.75
2024-05-09T12:44:55.221Z,11.90
2024-05-09T12:47:26.562Z,11.23
2024-05-09T12:49:54.048Z,12.30
2024-05-09T12:52:28.610Z,10.15
2024-05-09T12:54:56.932Z,11.20
2024-05-09T12:57:26.958Z,14.18
2024-05-09T12:59:54.104Z,10.57
2024-05-09T13:02:24.068Z,11.45
2024-05-09T13:04:51.526Z,11.20
2024-05-09T13:07:21.279Z,9.65
2024-05-09T13:09:51.027Z,10.93
2024-05-09T13:12:21.606Z,10.68
2024-05-09T13:14:49.812Z,9.40
2024-05-09T13:17:20.191Z,9.35
2024-05-09T13:19:47.162Z,10.27
2024-05-09T13:22:18.051Z,10.65
2024-05-09T13:24:45.526Z,11.13
2024-05-09T13:27:17.856Z,12.75
2024-05-09T13:29:44.900Z,10.23
2024-05-09T13:32:14.848Z,12.02
2024-05-09T13:34:41.881Z,10.20
2024-05-09T13:37:11.979Z,12.50
2024-05-09T13:39:39.121Z,11.90
2024-05-09T13:42:09.268Z,13.95
2024-05-09T13:44:41.634Z,13.95
2024-05-09T13:47:12.464Z,10.30
2024-05-09T13:49:39.667Z,12.82
2024-05-09T13:52:10.223Z,11.18
2024-05-09T13:54:37.297Z,11.27
2024-05-09T13:57:07.810Z,13.68
2024-05-09T13:59:35.151Z,11.80
2024-05-09T14:02:08.460Z,11.30
2024-05-09T14:04:36.412Z,10.90
2024-05-09T14:07:07.617Z,10.70
2024-05-09T14:09:34.816Z,11.10
2024-05-09T14:12:04.821Z,11.23
2024-05-09T14:14:31.893Z,10.63
2024-05-09T14:17:01.806Z,11.90
2024-05-09T14:19:31.736Z,11.68
2024-05-09T14:22:01.383Z,12.13
2024-05-09T14:24:28.409Z,12.35
2024-05-09T14:26:59.553Z,12.73
2024-05-09T14:29:26.908Z,15.50
2024-05-09T14:31:56.496Z,9.23
2024-05-09T14:34:23.783Z,10.70
2024-05-09T14:36:58.765Z,11.13
2024-05-09T14:39:25.826Z,11.57
2024-05-09T14:41:55.837Z,11.23
2024-05-09T14:44:22.830Z,13.77
2024-05-09T14:46:52.662Z,9.82
2024-05-09T14:49:22.821Z,10.70
2024-05-09T14:51:50.713Z,12.25
2024-05-09T14:54:23.434Z,11.93
2024-05-09T14:56:51.297Z,11.70
2024-05-09T14:59:21.277Z,13.50
2024-05-09T15:01:48.558Z,10.45
2024-05-09T15:04:18.644Z,11.90
2024-05-09T15:06:48.369Z,11.75
2024-05-09T15:09:20.577Z,11.02
2024-05-09T15:14:20.967Z,12.10
2024-05-09T15:16:49.391Z,10.60
2024-05-09T15:19:19.244Z,11.45
2024-05-09T15:21:46.363Z,15.02
2024-05-09T15:24:15.881Z,10.35
2024-05-09T15:26:42.937Z,13.77
2024-05-09T15:29:17.490Z,11.75
2024-05-09T15:31:44.653Z,11.85
2024-05-09T15:34:15.387Z,10.90
2024-05-09T15:36:43.427Z,9.60
2024-05-09T15:39:14.179Z,11.07
2024-05-09T15:41:42.103Z,8.23
2024-05-09T15:44:11.994Z,11.43
2024-05-09T15:46:41.788Z,12.30
2024-05-09T15:49:12.470Z,13.60
2024-05-09T15:51:39.929Z,8.70
2024-05-09T15:54:09.970Z,13.80
2024-05-09T15:56:37.398Z,11.48
2024-05-09T15:59:07.853Z,12.38
2024-05-09T16:01:35.382Z,11.57
2024-05-09T16:04:10.672Z,12.70
2024-05-09T16:06:37.935Z,18.00
2024-05-09T16:09:08.008Z,15.27
2024-05-09T16:11:35.180Z,11.50
2024-05-09T16:14:09.866Z,13.40
2024-05-09T16:16:37.052Z,13.00
2024-05-09T16:19:10.091Z,14.90
2024-05-09T16:21:37.652Z,13.48
2024-05-09T16:24:07.937Z,14.93
2024-05-09T16:26:35.405Z,15.85
2024-05-09T16:29:05.502Z,17.08
2024-05-09T16:31:32.998Z,14.02
2024-05-09T16:34:03.591Z,14.13
2024-05-09T16:36:33.570Z,15.32
2024-05-09T16:39:03.167Z,13.45
2024-05-09T16:41:30.237Z,16.08
2024-05-09T16:44:02.258Z,11.75
2024-05-09T16:46:29.281Z,13.80
2024-05-09T16:48:59.257Z,19.05
2024-05-09T16:51:26.286Z,17.42
2024-05-09T16:53:58.976Z,15.50
2024-05-09T16:56:27.928Z,16.88
2024-05-09T16:58:58.813Z,16.98
2024-05-09T17:01:27.733Z,18.05
2024-05-09T17:03:58.135Z,16.13
2024-05-09T17:06:26.112Z,17.92
2024-05-09T17:09:08.069Z,16.27
2024-05-09T17:11:39.799Z,16.08
2024-05-09T17:14:09.693Z,15.80
2024-05-09T17:16:40.188Z,18.65
2024-05-09T17:19:10.005Z,20.20
2024-05-09T17:21:38.390Z,17.15
2024-05-09T17:24:11.253Z,15.82
2024-05-09T17:26:38.290Z,18.90
2024-05-09T17:29:12.422Z,16.52
2024-05-09T17:31:39.602Z,17.15
2024-05-09T17:34:09.462Z,15.90
2024-05-09T17:36:36.907Z,14.70
2024-05-09T17:39:10.560Z,15.23
2024-05-09T17:41:37.686Z,14.70
2024-05-09T17:44:07.698Z,17.90
2024-05-09T17:46:34.949Z,13.82
2024-05-09T17:49:05.279Z,15.70
2024-05-09T17:51:32.658Z,14.15
2024-05-09T17:54:02.949Z,14.82
2024-05-09T17:56:32.769Z,12.82
2024-05-09T17:59:02.364Z,14.13
2024-05-09T18:01:29.410Z,12.55
2024-05-09T18:03:59.755Z,13.98
2024-05-09T18:06:27.552Z,12.52
2024-05-09T18:08:57.715Z,13.23
2024-05-09T18:11:25.492Z,13.77
2024-05-09T18:13:58.294Z,11.52
2024-05-09T18:16:28.444Z,15.48
2024-05-09T18:18:58.830Z,12.15
2024-05-09T18:21:26.357Z,11.35
2024-05-09T18:23:58.752Z,13.07
2024-05-09T18:26:27.529Z,12.85
2024-05-09T18:28:59.920Z,12.40
2024-05-09T18:31:26.987Z,11.80
2024-05-09T18:33:57.095Z,12.35
2024-05-09T18:36:28.355Z,11.93
2024-05-09T18:38:58.492Z,12.80
2024-05-09T18:41:25.741Z,10.52
2024-05-09T18:43:59.355Z,12.32
2024-05-09T18:46:26.934Z,12.20
2024-05-09T18:48:58.068Z,11.48
2024-05-09T18:51:25.240Z,14.63
2024-05-09T18:53:55.442Z,12.93
2024-05-09T18:56:22.956Z,14.82
2024-05-09T18:58:52.885Z,12.77
2024-05-09T19:01:22.853Z,10.70
2024-05-09T19:03:52.892Z,14.77
2024-05-09T19:06:23.913Z,12.48
2024-05-09T19:08:56.312Z,10.38
2024-05-09T19:11:23.305Z,10.77
2024-05-09T19:13:53.230Z,11.77
2024-05-09T19:16:23.544Z,16.40
2024-05-09T19:18:54.220Z,13.05
2024-05-09T19:21:21.299Z,13.15
2024-05-09T19:23:52.494Z,15.18
2024-05-09T19:26:19.755Z,13.55
2024-05-09T19:28:49.761Z,11.82
2024-05-09T19:31:16.893Z,12.98
2024-05-09T19:33:49.201Z,12.10
2024-05-09T19:36:18.528Z,12.70
2024-05-09T19:38:48.826Z,13.60
2024-05-09T19:41:15.942Z,15.90
2024-05-09T19:43:45.642Z,13.40
2024-05-09T19:46:12.884Z,12.35
2024-05-09T19:48:43.493Z,12.95
2024-05-09T19:51:13.288Z,11.93
2024-05-09T19:53:42.960Z,12.90
2024-05-09T19:56:09.920Z,12.32
2024-05-09T20:01:06.652Z,13.93
2024-05-09T20:06:05.109Z,15.32
2024-05-09T20:08:38.153Z,13.40
2024-05-09T20:11:05.846Z,14.13
2024-05-09T20:13:35.740Z,13.13
2024-05-09T20:16:04.495Z,16.77
2024-05-09T20:18:34.582Z,16.15
2024-05-09T20:21:02.642Z,15.38
2024-05-09T20:23:32.671Z,16.45
2024-05-09T20:26:02.447Z,14.05
2024-05-09T20:28:32.675Z,13.30
2024-05-09T20:30:59.869Z,16.15
2024-05-09T20:33:29.729Z,14.00
2024-05-09T20:36:01.618Z,15.65
2024-05-09T20:38:32.478Z,15.40
2024-05-09T20:41:02.631Z,14.77
2024-05-09T20:43:32.436Z,15.93
2024-05-09T20:46:00.241Z,15.00
2024-05-09T20:48:30.611Z,16.75
2024-05-09T20:50:57.904Z,12.60
2024-05-09T20:53:27.974Z,18.42
2024-05-09T20:55:54.903Z,16.10
2024-05-09T20:58:27.489Z,16.52
2024-05-09T21:00:54.613Z,16.73
2024-05-09T21:03:24.845Z,18.48
2024-05-09T21:05:52.491Z,17.65
2024-05-09T21:08:23.838Z,16.88
2024-05-09T21:10:51.085Z,17.73
2024-05-09T21:13:21.425Z,17.45
2024-05-09T21:15:51.705Z,16.65
2024-05-09T21:18:22.280Z,20.25
2024-05-09T21:20:49.956Z,19.63
2024-05-09T21:23:19.845Z,19.10
2024-05-09T21:25:47.222Z,17.67
2024-05-09T21:28:17.206Z,18.25
2024-05-09T21:30:44.601Z,17.02
2024-05-09T21:33:17.482Z,18.50
2024-05-09T21:35:45.137Z,18.55
2024-05-09T21:38:16.548Z,17.30
2024-05-09T21:40:44.238Z,17.23
2024-05-09T21:43:14.768Z,16.77
2024-05-09T21:45:42.639Z,17.00
2024-05-09T21:48:15.144Z,16.13
2024-05-09T21:50:45.330Z,18.67
2024-05-09T21:53:18.365Z,17.67
2024-05-09T21:55:46.435Z,16.75
2024-05-09T21:58:18.280Z,19.40
2024-05-09T22:00:46.572Z,18.50
2024-05-09T22:03:17.517Z,17.83
2024-05-09T22:05:47.274Z,19.42
2024-05-09T22:08:17.336Z,19.33
2024-05-09T22:10:44.530Z,18.25
2024-05-09T22:13:15.727Z,17.80
2024-05-09T22:15:43.285Z,16.95
2024-05-09T22:18:13.642Z,20.40
2024-05-09T22:20:45.577Z,19.52
2024-05-09T22:23:18.815Z,18.33
2024-05-09T22:25:46.051Z,18.77
2024-05-09T22:30:46.508Z,22.88
2024-05-09T22:33:17.912Z,20.23
2024-05-09T22:35:45.400Z,18.35
2024-05-09T22:38:18.186Z,20.52
2024-05-09T22:40:48.589Z,17.73
2024-05-09T22:43:23.441Z,18.48
2024-05-09T22:45:52.447Z,19.55
2024-05-09T22:48:24.242Z,21.90
2024-05-09T22:50:52.063Z,21.55
2024-05-09T22:55:54.543Z,16.67
2024-05-09T22:58:24.990Z,20.25
2024-05-09T23:00:52.727Z,18.77
2024-05-09T23:03:23.497Z,20.08
2024-05-09T23:05:50.550Z,22.63
2024-05-09T23:08:20.588Z,22.38
2024-05-09T23:10:50.788Z,20.90
2024-05-09T23:13:23.442Z,18.83
2024-05-09T23:15:50.802Z,20.58
2024-05-09T23:20:48.230Z,19.30
2024-05-09T23:25:45.248Z,17.92
2024-05-09T23:28:18.124Z,19.77
2024-05-09T23:30:45.241Z,19.00
2024-05-09T23:35:44.173Z,17.40
2024-05-09T23:38:14.730Z,21.00
2024-05-09T23:40:42.844Z,22.52
2024-05-09T23:43:14.044Z,21.17
2024-05-09T23:45:44.137Z,17.42
2024-05-09T23:48:14.616Z,20.88
2024-05-09T23:50:42.256Z,19.38
2024-05-09T23:53:12.107Z,20.20
2024-05-09T23:55:39.818Z,18.48
2024-05-09T23:58:11.787Z,21.20
